sensor_id;sensor_type;location;lat;lon;timestamp;temperature;humidity
35305;DHT22;26433;48.034;-1.764;2022-10-31T06:02:44;15.00;96.70
35305;DHT22;26433;48.034;-1.764;2022-10-31T06:07:52;15.00;96.90
35305;DHT22;26433;48.034;-1.764;2022-10-31T06:12:57;15.10;96.70
35305;DHT22;26433;48.034;-1.764;2022-10-31T06:18:03;15.10;96.60
35305;DHT22;26433;48.034;-1.764;2022-10-31T06:23:08;15.00;96.90
35305;DHT22;26433;48.034;-1.764;2022-10-31T06:28:12;15.10;96.60
35305;DHT22;26433;48.034;-1.764;2022-10-31T06:33:17;15.00;96.80
35305;DHT22;26433;48.034;-1.764;2022-10-31T06:38:22;15.00;96.90
35305;DHT22;26433;48.034;-1.764;2022-10-31T06:43:26;14.90;97.10
35305;DHT22;26433;48.034;-1.764;2022-10-31T06:48:33;14.90;97.20
35305;DHT22;26433;48.034;-1.764;2022-10-31T06:53:42;14.90;97.30
35305;DHT22;26433;48.034;-1.764;2022-10-31T06:58:46;14.90;97.20
35305;DHT22;26433;48.034;-1.764;2022-10-31T07:03:51;14.90;97.30
35305;DHT22;26433;48.034;-1.764;2022-10-31T07:08:55;14.80;97.20
35305;DHT22;26433;48.034;-1.764;2022-10-31T07:14:01;14.80;97.40
35305;DHT22;26433;48.034;-1.764;2022-10-31T07:19:06;14.80;97.50
35305;DHT22;26433;48.034;-1.764;2022-10-31T07:24:09;14.80;97.60
35305;DHT22;26433;48.034;-1.764;2022-10-31T07:29:20;14.90;97.50
35305;DHT22;26433;48.034;-1.764;2022-10-31T07:34:25;14.90;97.60
35305;DHT22;26433;48.034;-1.764;2022-10-31T07:39:32;14.90;97.60
35305;DHT22;26433;48.034;-1.764;2022-10-31T07:44:36;15.00;97.60
35305;DHT22;26433;48.034;-1.764;2022-10-31T07:49:44;15.00;97.60
35305;DHT22;26433;48.034;-1.764;2022-10-31T07:54:55;15.10;97.50
35305;DHT22;26433;48.034;-1.764;2022-10-31T07:59:59;15.20;97.60
35305;DHT22;26433;48.034;-1.764;2022-10-31T08:05:05;15.20;97.60
35305;DHT22;26433;48.034;-1.764;2022-10-31T08:10:13;15.30;97.50
35305;DHT22;26433;48.034;-1.764;2022-10-31T08:15:16;15.40;97.20
35305;DHT22;26433;48.034;-1.764;2022-10-31T08:20:22;15.50;97.20
35305;DHT22;26433;48.034;-1.764;2022-10-31T08:25:27;15.60;97.20
35305;DHT22;26433;48.034;-1.764;2022-10-31T08:30:39;15.60;97.20
35305;DHT22;26433;48.034;-1.764;2022-10-31T08:35:49;15.60;97.30
35305;DHT22;26433;48.034;-1.764;2022-10-31T08:40:57;15.70;97.40
35305;DHT22;26433;48.034;-1.764;2022-10-31T08:46:00;15.70;97.40
35305;DHT22;26433;48.034;-1.764;2022-10-31T08:51:08;15.80;97.40
35305;DHT22;26433;48.034;-1.764;2022-10-31T08:56:12;15.90;97.40
35305;DHT22;26433;48.034;-1.764;2022-10-31T09:01:15;15.90;97.40
35305;DHT22;26433;48.034;-1.764;2022-10-31T09:06:21;15.90;97.40
35305;DHT22;26433;48.034;-1.764;2022-10-31T09:11:25;15.80;97.30
35305;DHT22;26433;48.034;-1.764;2022-10-31T09:16:31;16.00;97.30
35305;DHT22;26433;48.034;-1.764;2022-10-31T09:21:36;16.00;97.40
35305;DHT22;26433;48.034;-1.764;2022-10-31T09:26:39;16.00;97.50
35305;DHT22;26433;48.034;-1.764;2022-10-31T09:31:43;16.00;97.50
35305;DHT22;26433;48.034;-1.764;2022-10-31T09:36:48;16.00;97.50
35305;DHT22;26433;48.034;-1.764;2022-10-31T09:42:09;15.90;97.60
35305;DHT22;26433;48.034;-1.764;2022-10-31T09:47:27;15.90;97.80
35305;DHT22;26433;48.034;-1.764;2022-10-31T09:52:43;15.90;97.90
35305;DHT22;26433;48.034;-1.764;2022-10-31T09:57:51;16.00;97.90
35305;DHT22;26433;48.034;-1.764;2022-10-31T10:02:59;16.00;97.80
35305;DHT22;26433;48.034;-1.764;2022-10-31T10:08:10;16.10;97.90
35305;DHT22;26433;48.034;-1.764;2022-10-31T10:13:32;16.40;97.90
35305;DHT22;26433;48.034;-1.764;2022-10-31T10:18:44;16.70;97.60
35305;DHT22;26433;48.034;-1.764;2022-10-31T10:23:58;17.00;97.00
35305;DHT22;26433;48.034;-1.764;2022-10-31T10:29:17;17.10;96.80
35305;DHT22;26433;48.034;-1.764;2022-10-31T10:34:27;17.20;97.10
35305;DHT22;26433;48.034;-1.764;2022-10-31T10:39:38;17.50;96.90
35305;DHT22;26433;48.034;-1.764;2022-10-31T10:44:47;17.80;96.60
35305;DHT22;26433;48.034;-1.764;2022-10-31T10:50:13;18.30;96.20
35305;DHT22;26433;48.034;-1.764;2022-10-31T10:55:27;18.90;95.20
35305;DHT22;26433;48.034;-1.764;2022-10-31T11:00:38;19.30;94.40
35305;DHT22;26433;48.034;-1.764;2022-10-31T11:05:46;19.40;94.10
35305;DHT22;26433;48.034;-1.764;2022-10-31T11:10:58;19.20;94.40
35305;DHT22;26433;48.034;-1.764;2022-10-31T11:16:04;19.30;94.50
35305;DHT22;26433;48.034;-1.764;2022-10-31T11:21:20;19.20;94.30
35305;DHT22;26433;48.034;-1.764;2022-10-31T11:26:26;19.20;94.60
35305;DHT22;26433;48.034;-1.764;2022-10-31T11:31:29;19.10;94.60
35305;DHT22;26433;48.034;-1.764;2022-10-31T11:36:37;19.00;94.90
35305;DHT22;26433;48.034;-1.764;2022-10-31T11:41:44;18.90;95.00
35305;DHT22;26433;48.034;-1.764;2022-10-31T11:46:51;18.80;95.50
35305;DHT22;26433;48.034;-1.764;2022-10-31T11:51:56;18.60;95.60
35305;DHT22;26433;48.034;-1.764;2022-10-31T11:57:02;18.60;95.70
35305;DHT22;26433;48.034;-1.764;2022-10-31T12:02:18;18.70;95.60
35305;DHT22;26433;48.034;-1.764;2022-10-31T12:07:22;18.70;95.60
35305;DHT22;26433;48.034;-1.764;2022-10-31T12:12:49;18.70;95.70
35305;DHT22;26433;48.034;-1.764;2022-10-31T12:23:25;18.80;95.50
35305;DHT22;26433;48.034;-1.764;2022-10-31T12:28:45;18.80;95.60
35305;DHT22;26433;48.034;-1.764;2022-10-31T12:34:03;18.70;95.90
35305;DHT22;26433;48.034;-1.764;2022-10-31T12:39:24;18.80;95.70
35305;DHT22;26433;48.034;-1.764;2022-10-31T12:44:55;19.00;95.60
35305;DHT22;26433;48.034;-1.764;2022-10-31T12:50:13;19.10;95.40
35305;DHT22;26433;48.034;-1.764;2022-10-31T12:55:35;19.40;95.10
35305;DHT22;26433;48.034;-1.764;2022-10-31T13:00:44;19.50;94.80
35305;DHT22;26433;48.034;-1.764;2022-10-31T13:05:53;19.50;94.80
35305;DHT22;26433;48.034;-1.764;2022-10-31T13:11:05;19.60;94.90
35305;DHT22;26433;48.034;-1.764;2022-10-31T13:16:14;19.60;95.00
35305;DHT22;26433;48.034;-1.764;2022-10-31T13:21:21;19.60;95.00
35305;DHT22;26433;48.034;-1.764;2022-10-31T13:26:35;19.60;95.10
35305;DHT22;26433;48.034;-1.764;2022-10-31T13:31:42;19.70;95.10
35305;DHT22;26433;48.034;-1.764;2022-10-31T13:36:50;19.70;95.10
35305;DHT22;26433;48.034;-1.764;2022-10-31T13:42:01;19.70;95.10
35305;DHT22;26433;48.034;-1.764;2022-10-31T13:47:23;19.70;95.20
35305;DHT22;26433;48.034;-1.764;2022-10-31T13:52:27;19.70;95.30
35305;DHT22;26433;48.034;-1.764;2022-10-31T13:57:34;19.80;95.10
35305;DHT22;26433;48.034;-1.764;2022-10-31T14:02:46;19.70;95.10
35305;DHT22;26433;48.034;-1.764;2022-10-31T14:13:04;19.80;95.10
35305;DHT22;26433;48.034;-1.764;2022-10-31T14:18:31;19.70;95.20
35305;DHT22;26433;48.034;-1.764;2022-10-31T14:23:37;19.70;95.40
35305;DHT22;26433;48.034;-1.764;2022-10-31T14:28:42;19.70;95.40
35305;DHT22;26433;48.034;-1.764;2022-10-31T14:33:47;19.70;95.30
35305;DHT22;26433;48.034;-1.764;2022-10-31T14:38:55;19.80;95.10
35305;DHT22;26433;48.034;-1.764;2022-10-31T14:44:30;19.80;94.90
35305;DHT22;26433;48.034;-1.764;2022-10-31T14:49:49;19.90;94.70
35305;DHT22;26433;48.034;-1.764;2022-10-31T14:54:56;19.90;94.20
35305;DHT22;26433;48.034;-1.764;2022-10-31T15:00:04;19.70;93.80
35305;DHT22;26433;48.034;-1.764;2022-10-31T15:05:11;19.40;93.40
35305;DHT22;26433;48.034;-1.764;2022-10-31T15:10:21;19.00;92.40
35305;DHT22;26433;48.034;-1.764;2022-10-31T15:15:26;18.40;92.80
35305;DHT22;26433;48.034;-1.764;2022-10-31T15:20:37;17.80;94.20
35305;DHT22;26433;48.034;-1.764;2022-10-31T15:25:41;17.50;95.10
35305;DHT22;26433;48.034;-1.764;2022-10-31T15:30:56;17.40;95.40
35305;DHT22;26433;48.034;-1.764;2022-10-31T15:36:02;17.30;95.40
35305;DHT22;26433;48.034;-1.764;2022-10-31T15:41:20;17.30;95.40
35305;DHT22;26433;48.034;-1.764;2022-10-31T15:46:26;17.30;95.40
35305;DHT22;26433;48.034;-1.764;2022-10-31T15:51:33;17.30;95.40
35305;DHT22;26433;48.034;-1.764;2022-10-31T15:56:39;17.30;95.50
35305;DHT22;26433;48.034;-1.764;2022-10-31T16:01:59;17.30;95.50
35305;DHT22;26433;48.034;-1.764;2022-10-31T16:07:14;17.40;95.70
35305;DHT22;26433;48.034;-1.764;2022-10-31T16:12:33;17.30;95.80
35305;DHT22;26433;48.034;-1.764;2022-10-31T16:17:41;17.40;96.00
35305;DHT22;26433;48.034;-1.764;2022-10-31T16:22:50;17.40;96.20
35305;DHT22;26433;48.034;-1.764;2022-10-31T16:27:57;17.40;96.40
35305;DHT22;26433;48.034;-1.764;2022-10-31T16:33:02;17.30;96.60
35305;DHT22;26433;48.034;-1.764;2022-10-31T16:38:08;17.40;96.70
35305;DHT22;26433;48.034;-1.764;2022-10-31T16:43:14;17.30;96.80
35305;DHT22;26433;48.034;-1.764;2022-10-31T16:48:20;17.40;96.90
35305;DHT22;26433;48.034;-1.764;2022-10-31T16:53:26;17.40;96.90
35305;DHT22;26433;48.034;-1.764;2022-10-31T16:58:33;17.40;96.90
35305;DHT22;26433;48.034;-1.764;2022-10-31T17:03:37;17.40;96.90
35305;DHT22;26433;48.034;-1.764;2022-10-31T17:08:42;17.50;97.00
35305;DHT22;26433;48.034;-1.764;2022-10-31T17:13:46;17.50;97.10
35305;DHT22;26433;48.034;-1.764;2022-10-31T17:18:50;17.40;97.20
35305;DHT22;26433;48.034;-1.764;2022-10-31T17:23:55;17.50;97.30
35305;DHT22;26433;48.034;-1.764;2022-10-31T17:28:58;17.50;97.50
35305;DHT22;26433;48.034;-1.764;2022-10-31T17:34:05;17.50;97.30
35305;DHT22;26433;48.034;-1.764;2022-10-31T17:39:11;17.40;97.50
35305;DHT22;26433;48.034;-1.764;2022-10-31T17:44:14;17.40;97.70
35305;DHT22;26433;48.034;-1.764;2022-10-31T17:49:18;17.30;97.80
35305;DHT22;26433;48.034;-1.764;2022-10-31T17:54:24;17.30;97.90
35305;DHT22;26433;48.034;-1.764;2022-10-31T17:59:27;17.30;98.00
35305;DHT22;26433;48.034;-1.764;2022-10-31T18:04:31;17.30;97.90
35305;DHT22;26433;48.034;-1.764;2022-10-31T18:09:36;17.20;98.00
35305;DHT22;26433;48.034;-1.764;2022-10-31T18:14:40;17.20;98.20
35305;DHT22;26433;48.034;-1.764;2022-10-31T18:19:49;17.10;98.30
35305;DHT22;26433;48.034;-1.764;2022-10-31T18:24:54;17.10;98.30
35305;DHT22;26433;48.034;-1.764;2022-10-31T18:30:04;17.00;98.50
35305;DHT22;26433;48.034;-1.764;2022-10-31T18:35:07;17.00;98.60
35305;DHT22;26433;48.034;-1.764;2022-10-31T18:40:12;16.90;98.90
35305;DHT22;26433;48.034;-1.764;2022-10-31T18:45:16;16.90;99.00
35305;DHT22;26433;48.034;-1.764;2022-10-31T18:50:39;16.90;99.20
35305;DHT22;26433;48.034;-1.764;2022-10-31T18:55:44;16.90;99.30
35305;DHT22;26433;48.034;-1.764;2022-10-31T19:00:51;16.90;99.10
35305;DHT22;26433;48.034;-1.764;2022-10-31T19:05:55;17.00;98.90
35305;DHT22;26433;48.034;-1.764;2022-10-31T19:11:04;17.00;98.80
35305;DHT22;26433;48.034;-1.764;2022-10-31T19:16:10;16.90;98.70
35305;DHT22;26433;48.034;-1.764;2022-10-31T19:21:15;16.90;98.50
35305;DHT22;26433;48.034;-1.764;2022-10-31T19:26:21;16.80;98.50
35305;DHT22;26433;48.034;-1.764;2022-10-31T19:31:24;16.70;98.30
35305;DHT22;26433;48.034;-1.764;2022-10-31T19:36:28;16.60;98.20
35305;DHT22;26433;48.034;-1.764;2022-10-31T19:41:33;16.50;98.20
35305;DHT22;26433;48.034;-1.764;2022-10-31T19:46:37;16.50;98.10
35305;DHT22;26433;48.034;-1.764;2022-10-31T19:52:00;16.40;97.90
35305;DHT22;26433;48.034;-1.764;2022-10-31T19:57:05;16.40;97.80
35305;DHT22;26433;48.034;-1.764;2022-10-31T20:02:12;16.30;97.60
35305;DHT22;26433;48.034;-1.764;2022-10-31T20:07:20;16.30;97.50
35305;DHT22;26433;48.034;-1.764;2022-10-31T20:12:25;16.20;97.20
35305;DHT22;26433;48.034;-1.764;2022-10-31T20:17:29;16.10;97.20
35305;DHT22;26433;48.034;-1.764;2022-10-31T20:22:33;16.10;97.10
35305;DHT22;26433;48.034;-1.764;2022-10-31T20:27:38;16.00;97.00
35305;DHT22;26433;48.034;-1.764;2022-10-31T20:32:42;16.00;96.80
35305;DHT22;26433;48.034;-1.764;2022-10-31T20:37:51;15.90;96.70
35305;DHT22;26433;48.034;-1.764;2022-10-31T20:42:56;15.80;96.70
35305;DHT22;26433;48.034;-1.764;2022-10-31T20:48:00;15.80;96.70
35305;DHT22;26433;48.034;-1.764;2022-10-31T20:53:04;15.80;96.40
35305;DHT22;26433;48.034;-1.764;2022-10-31T20:58:09;15.80;96.10
35305;DHT22;26433;48.034;-1.764;2022-10-31T21:03:13;15.70;96.10
35305;DHT22;26433;48.034;-1.764;2022-10-31T21:08:16;15.60;96.00
35305;DHT22;26433;48.034;-1.764;2022-10-31T21:13:22;15.50;96.00
35305;DHT22;26433;48.034;-1.764;2022-10-31T21:18:25;15.40;96.00
35305;DHT22;26433;48.034;-1.764;2022-10-31T21:23:29;15.30;95.90
35305;DHT22;26433;48.034;-1.764;2022-10-31T21:28:35;15.20;95.70
35305;DHT22;26433;48.034;-1.764;2022-10-31T21:33:39;15.20;95.70
35305;DHT22;26433;48.034;-1.764;2022-10-31T21:38:43;15.10;95.60
35305;DHT22;26433;48.034;-1.764;2022-10-31T21:43:49;15.00;95.50
35305;DHT22;26433;48.034;-1.764;2022-10-31T21:48:56;15.00;95.50
35305;DHT22;26433;48.034;-1.764;2022-10-31T21:53:59;14.90;95.30
35305;DHT22;26433;48.034;-1.764;2022-10-31T21:59:22;14.90;95.20
35305;DHT22;26433;48.034;-1.764;2022-10-31T22:04:26;14.80;95.20
35305;DHT22;26433;48.034;-1.764;2022-10-31T22:09:30;14.80;95.00
35305;DHT22;26433;48.034;-1.764;2022-10-31T22:14:35;14.70;94.90
35305;DHT22;26433;48.034;-1.764;2022-10-31T22:19:38;14.70;94.90
35305;DHT22;26433;48.034;-1.764;2022-10-31T22:24:42;14.70;94.90
35305;DHT22;26433;48.034;-1.764;2022-10-31T22:29:47;14.60;94.90
35305;DHT22;26433;48.034;-1.764;2022-10-31T22:34:57;14.60;94.80
35305;DHT22;26433;48.034;-1.764;2022-10-31T22:40:01;14.60;94.80
35305;DHT22;26433;48.034;-1.764;2022-10-31T22:45:07;14.60;94.80
35305;DHT22;26433;48.034;-1.764;2022-10-31T22:50:11;14.50;94.80
35305;DHT22;26433;48.034;-1.764;2022-10-31T22:55:14;14.50;94.70
35305;DHT22;26433;48.034;-1.764;2022-10-31T23:00:20;14.50;94.70
35305;DHT22;26433;48.034;-1.764;2022-10-31T23:05:24;14.40;94.60
35305;DHT22;26433;48.034;-1.764;2022-10-31T23:10:27;14.40;94.60
35305;DHT22;26433;48.034;-1.764;2022-10-31T23:15:37;14.40;94.50
35305;DHT22;26433;48.034;-1.764;2022-10-31T23:20:40;14.40;94.40
35305;DHT22;26433;48.034;-1.764;2022-10-31T23:25:44;14.30;94.20
